Time;durP1;ratioP1;P1;durP2;ratioP2;P2;SDS_P1;SDS_P2;PMS_P1;PMS_P2;Temp;Humidity;BMP_temperature;BMP_pressure;BME280_temperature;BME280_humidity;BME280_pressure;Samples;Min_cycle;Max_cycle;Signal;HPM_P1;HPM_P2
2023/01/06 00:01:26;;;;;;;17.37;11.28;;;;;;;7.60;88.77;98852.63;1684107;84;21237;-78
2023/01/06 00:04:32;;;;;;;16.65;11.90;;;;;;;7.70;88.50;98849.59;1720868;82;21227;-78
2023/01/06 00:07:38;;;;;;;13.20;10.13;;;;;;;7.66;88.20;98853.73;1723825;82;21233;-79
2023/01/06 00:10:42;;;;;;;15.03;10.80;;;;;;;7.74;87.84;98855.50;1684222;83;21239;-78
2023/01/06 00:13:48;;;;;;;15.53;11.03;;;;;;;7.70;87.81;98850.95;1666261;84;21291;-78
2023/01/06 00:16:54;;;;;;;16.25;11.28;;;;;;;7.65;88.18;98854.77;1725328;82;21227;-79
2023/01/06 00:20:00;;;;;;;15.50;10.72;;;;;;;7.63;88.08;98860.41;1726801;82;21283;-79
2023/01/06 00:23:06;;;;;;;15.72;10.15;;;;;;;7.65;87.90;98857.49;1713602;82;21199;-78
2023/01/06 00:26:14;;;;;;;15.72;10.08;;;;;;;7.55;88.01;98861.05;1697464;83;21291;-79
2023/01/06 00:29:21;;;;;;;19.17;10.58;;;;;;;7.66;87.77;98846.41;1689168;84;21224;-79
2023/01/06 00:32:27;;;;;;;14.90;9.90;;;;;;;7.67;87.71;98855.44;1692761;83;21814;-79
2023/01/06 00:35:32;;;;;;;15.48;10.58;;;;;;;7.66;87.90;98855.09;1670966;85;21236;-79
2023/01/06 00:38:38;;;;;;;15.08;9.70;;;;;;;7.67;87.99;98853.56;1727212;81;21251;-79
2023/01/06 00:42:03;;;;;;;16.60;10.03;;;;;;;7.89;87.34;98859.84;1734218;81;21204;-79
2023/01/06 00:45:10;;;;;;;17.52;10.00;;;;;;;7.77;87.69;98864.65;1733189;81;21272;-78
2023/01/06 00:48:16;;;;;;;13.95;9.30;;;;;;;7.82;87.55;98867.11;1733821;81;21307;-78
2023/01/06 00:51:22;;;;;;;18.90;10.25;;;;;;;7.89;87.27;98861.72;1720790;82;21237;-78
2023/01/06 00:54:29;;;;;;;15.18;10.72;;;;;;;7.93;87.09;98867.94;1734600;82;22541;-78
2023/01/06 00:57:34;;;;;;;12.50;9.18;;;;;;;8.00;87.05;98860.34;1716583;82;21283;-78
2023/01/06 01:00:39;;;;;;;16.40;10.32;;;;;;;8.12;86.51;98863.72;1714905;82;21275;-78
2023/01/06 01:03:45;;;;;;;16.32;10.40;;;;;;;8.15;86.38;98867.95;1721009;81;21195;-79
2023/01/06 01:06:53;;;;;;;15.70;10.53;;;;;;;8.10;86.45;98865.81;1721778;82;21239;-79
2023/01/06 01:09:58;;;;;;;19.02;10.60;;;;;;;8.12;86.81;98863.72;1733395;81;21212;-79
2023/01/06 01:13:04;;;;;;;14.45;9.05;;;;;;;7.91;87.24;98865.95;1723330;82;21223;-78
2023/01/06 01:16:16;;;;;;;13.55;9.75;;;;;;;7.99;87.06;98864.11;1720749;81;21263;-78
2023/01/06 01:19:22;;;;;;;18.98;9.75;;;;;;;8.07;86.36;98862.11;1720818;81;21207;-78
2023/01/06 01:22:27;;;;;;;11.78;9.35;;;;;;;8.07;86.40;98865.35;1722718;82;21242;-78
2023/01/06 01:25:33;;;;;;;15.72;9.90;;;;;;;7.99;86.68;98866.31;1729146;81;21229;-78
2023/01/06 01:28:40;;;;;;;14.98;10.45;;;;;;;8.10;86.39;98859.52;1728006;82;21223;-77
2023/01/06 01:31:45;;;;;;;19.65;10.95;;;;;;;8.10;86.43;98858.16;1729783;82;21229;-79
2023/01/06 01:34:52;;;;;;;15.38;10.50;;;;;;;7.89;86.80;98855.75;1731478;81;21252;-79
2023/01/06 01:37:57;;;;;;;14.93;9.35;;;;;;;8.04;86.41;98851.59;1741058;81;21235;-79
2023/01/06 01:41:03;;;;;;;15.75;10.00;;;;;;;8.01;86.28;98862.05;1733018;82;21271;-79
2023/01/06 01:44:12;;;;;;;15.93;9.20;;;;;;;7.96;86.40;98867.25;1729798;82;21787;-79
2023/01/06 01:47:18;;;;;;;13.10;9.53;;;;;;;7.85;87.15;98859.05;1729325;81;21207;-78
2023/01/06 01:50:36;;;;;;;12.70;8.65;;;;;;;7.85;87.36;98859.89;1729026;81;21532;-78
2023/01/06 01:53:50;;;;;;;12.18;8.65;;;;;;;7.94;87.58;98861.45;1724955;82;21240;-78
2023/01/06 01:56:59;;;;;;;16.85;9.70;;;;;;;8.03;86.93;98858.61;1671704;83;21232;-78
2023/01/06 02:00:04;;;;;;;9.63;6.67;;;;;;;8.12;86.55;98859.63;1733248;81;22578;-78
2023/01/06 02:03:11;;;;;;;14.95;8.98;;;;;;;7.91;86.90;98863.75;1724912;80;21236;-78
2023/01/06 02:06:20;;;;;;;13.00;8.93;;;;;;;7.80;87.31;98869.69;1724108;82;21272;-79
2023/01/06 02:09:46;;;;;;;13.80;8.95;;;;;;;7.70;87.66;98867.28;1699552;83;21240;-79
2023/01/06 02:12:57;;;;;;;11.83;8.80;;;;;;;7.68;87.92;98863.92;1697406;83;21287;-78
2023/01/06 02:16:15;;;;;;;16.02;8.90;;;;;;;7.63;88.50;98865.86;1695483;84;21220;-79
2023/01/06 02:19:46;;;;;;;13.10;8.23;;;;;;;7.84;88.33;98870.47;1732539;82;21833;-79
2023/01/06 02:23:21;;;;;;;12.85;8.80;;;;;;;8.08;87.81;98872.47;1732098;82;21244;-78
2023/01/06 02:26:46;;;;;;;12.47;8.13;;;;;;;7.98;87.84;98871.97;1735982;81;21271;-78
2023/01/06 02:30:10;;;;;;;11.15;7.35;;;;;;;8.10;87.69;98869.89;1721222;82;21270;-79
2023/01/06 02:33:33;;;;;;;11.33;7.80;;;;;;;8.17;87.36;98876.75;1634890;84;21224;-78
2023/01/06 02:37:02;;;;;;;13.53;8.53;;;;;;;8.25;87.25;98869.81;1666448;85;21605;-78
2023/01/06 02:40:29;;;;;;;14.28;8.05;;;;;;;8.19;87.46;98877.42;1662119;84;21245;-78
2023/01/06 02:43:51;;;;;;;13.15;8.33;;;;;;;8.11;87.56;98876.19;1662070;85;21807;-78
2023/01/06 02:47:27;;;;;;;12.25;7.50;;;;;;;8.15;87.40;98872.03;1676955;85;21240;-78
2023/01/06 02:50:53;;;;;;;10.78;7.22;;;;;;;8.20;87.22;98871.77;1669592;85;21323;-79
2023/01/06 02:54:25;;;;;;;11.53;6.72;;;;;;;8.15;87.45;98869.31;1659267;84;21235;-79
2023/01/06 02:57:44;;;;;;;10.72;6.65;;;;;;;8.13;87.72;98870.84;1658639;84;21236;-79
2023/01/06 03:00:58;;;;;;;9.05;5.95;;;;;;;8.16;87.38;98873.71;1672643;84;21792;-79
2023/01/06 03:04:05;;;;;;;8.93;5.55;;;;;;;8.09;87.92;98867.34;1668637;85;21871;-78
2023/01/06 03:07:11;;;;;;;8.88;6.45;;;;;;;8.01;88.18;98877.03;1667587;85;21771;-79
2023/01/06 03:10:20;;;;;;;7.90;5.83;;;;;;;7.98;88.58;98876.05;1669285;84;21231;-78
2023/01/06 03:13:57;;;;;;;9.40;5.67;;;;;;;8.13;87.70;98872.73;1664986;85;21348;-78
2023/01/06 03:17:03;;;;;;;7.67;5.33;;;;;;;8.18;87.78;98874.34;1709321;82;21222;-79
2023/01/06 03:20:11;;;;;;;9.90;5.60;;;;;;;8.08;88.11;98873.84;1702438;82;21299;-78
2023/01/06 03:23:16;;;;;;;10.38;6.17;;;;;;;8.04;88.50;98882.07;1699195;83;21244;-78
2023/01/06 03:26:23;;;;;;;9.18;5.47;;;;;;;8.01;88.81;98874.31;1710008;83;21248;-79
2023/01/06 03:29:29;;;;;;;7.28;5.33;;;;;;;8.11;88.40;98885.72;1704183;82;21244;-78
2023/01/06 03:32:41;;;;;;;8.68;5.12;;;;;;;8.18;88.13;98877.07;1713171;83;21233;-78
2023/01/06 03:36:23;;;;;;;7.92;4.97;;;;;;;8.24;87.87;98883.64;1714899;82;21244;-78
2023/01/06 03:39:33;;;;;;;7.12;5.00;;;;;;;8.25;87.91;98888.05;1715790;82;21203;-79
2023/01/06 03:43:15;;;;;;;7.20;4.72;;;;;;;8.20;87.83;98891.35;1697697;82;21207;-78
2023/01/06 03:46:38;;;;;;;9.10;5.28;;;;;;;8.19;88.17;98899.20;1715055;81;21568;-77
2023/01/06 03:49:49;;;;;;;10.63;5.10;;;;;;;8.20;88.00;98892.19;1725949;82;21946;-78
2023/01/06 03:53:00;;;;;;;7.83;4.67;;;;;;;8.09;88.48;98897.30;1731670;81;21292;-79
2023/01/06 03:56:19;;;;;;;6.45;4.95;;;;;;;8.11;88.45;98893.88;1717085;82;21241;-78
2023/01/06 03:59:32;;;;;;;8.75;5.75;;;;;;;8.13;88.28;98898.60;1722098;81;21279;-78
2023/01/06 04:02:37;;;;;;;7.90;5.60;;;;;;;8.23;87.97;98893.66;1719610;81;21199;-78
2023/01/06 04:05:46;;;;;;;6.78;4.87;;;;;;;8.23;88.05;98903.20;1723978;82;21235;-78
2023/01/06 04:08:52;;;;;;;10.75;5.80;;;;;;;8.11;88.64;98900.69;1731853;81;22511;-79
2023/01/06 04:15:28;;;;;;;10.98;5.05;;;;;;;7.88;89.86;98904.44;1720893;82;21280;-79
2023/01/06 04:18:32;;;;;;;;;;;;;;;7.76;90.75;98905.97;1705980;83;21275;-78
2023/01/06 04:21:39;;;;;;;7.55;4.50;;;;;;;7.75;91.17;98911.09;1723212;82;20228;-78
2023/01/06 04:24:44;;;;;;;7.15;5.12;;;;;;;7.73;91.73;98909.09;1727692;82;21288;-78
2023/01/06 04:27:51;;;;;;;7.92;5.45;;;;;;;7.89;91.20;98905.27;1724071;82;21244;-79
2023/01/06 04:30:56;;;;;;;8.33;4.00;;;;;;;7.94;91.04;98906.90;1729814;82;21256;-79
2023/01/06 04:34:01;;;;;;;5.55;4.35;;;;;;;8.16;90.24;98915.41;1735211;81;21228;-78
2023/01/06 04:37:08;;;;;;;10.40;5.05;;;;;;;8.29;89.48;98913.86;1731146;81;21205;-78
2023/01/06 04:40:15;;;;;;;7.40;4.95;;;;;;;8.35;88.56;98911.18;1732231;81;21243;-78
2023/01/06 04:43:20;;;;;;;9.00;4.22;;;;;;;7.93;89.86;98918.31;1727554;81;21204;-78
2023/01/06 04:46:27;;;;;;;8.38;4.95;;;;;;;8.19;89.82;98924.56;1725372;82;21215;-78
2023/01/06 04:49:32;;;;;;;9.03;4.55;;;;;;;8.26;89.66;98923.77;1726453;81;21216;-78
2023/01/06 04:52:38;;;;;;;6.37;4.10;;;;;;;8.26;89.59;98922.41;1712284;82;21285;-78
2023/01/06 04:55:46;;;;;;;5.30;3.90;;;;;;;8.31;89.84;98923.50;1711303;82;21268;-79
2023/01/06 04:58:52;;;;;;;6.80;4.22;;;;;;;8.18;90.17;98923.38;1724572;81;21266;-79
2023/01/06 05:01:58;;;;;;;7.95;4.22;;;;;;;8.23;90.22;98924.98;1727456;82;21212;-78
2023/01/06 05:05:04;;;;;;;5.53;3.60;;;;;;;8.47;89.20;98928.38;1729250;82;21310;-78
2023/01/06 05:08:10;;;;;;;6.70;3.98;;;;;;;8.34;89.23;98935.38;1728542;81;21196;-78
2023/01/06 05:11:21;;;;;;;5.50;3.65;;;;;;;8.49;88.81;98935.86;1734060;82;21204;-78
2023/01/06 05:14:27;;;;;;;7.70;4.87;;;;;;;8.16;89.66;98937.20;1726341;81;21204;-78
2023/01/06 05:17:33;;;;;;;6.83;3.72;;;;;;;8.07;90.35;98941.60;1723202;81;21260;-78
2023/01/06 05:20:38;;;;;;;5.53;3.67;;;;;;;8.08;90.95;98941.92;1722858;81;21795;-78
2023/01/06 05:23:45;;;;;;;4.97;3.20;;;;;;;8.11;90.09;98949.19;1730689;81;21228;-78
2023/01/06 05:26:51;;;;;;;8.53;3.65;;;;;;;8.02;91.20;98948.15;1727548;81;21226;-78
2023/01/06 05:29:56;;;;;;;5.95;3.70;;;;;;;8.08;90.74;98952.29;1720564;81;21224;-79
2023/01/06 05:33:01;;;;;;;6.92;3.60;;;;;;;8.12;90.90;98955.48;1716819;82;21867;-79
2023/01/06 05:36:11;;;;;;;4.60;3.12;;;;;;;8.24;90.66;98964.84;1717180;82;21293;-79
2023/01/06 05:39:17;;;;;;;8.27;4.23;;;;;;;8.38;90.26;98969.94;1733364;81;21259;-79
2023/01/06 05:42:24;;;;;;;6.15;3.35;;;;;;;8.26;90.55;98968.72;1729424;81;21239;-79
2023/01/06 05:45:30;;;;;;;4.22;2.95;;;;;;;8.22;90.88;98979.16;1720637;81;21275;-78
2023/01/06 05:48:37;;;;;;;5.53;3.75;;;;;;;8.15;91.14;98978.25;1727742;82;21232;-78
2023/01/06 05:51:44;;;;;;;5.62;3.17;;;;;;;8.29;90.21;98980.08;1731751;82;21239;-78
2023/01/06 05:54:49;;;;;;;3.83;3.02;;;;;;;8.39;90.41;98982.52;1730790;81;21231;-78
2023/01/06 05:57:55;;;;;;;4.97;3.70;;;;;;;8.30;90.83;98993.18;1725806;81;21240;-78
2023/01/06 06:01:00;;;;;;;5.90;3.50;;;;;;;8.46;90.01;98995.67;1729733;82;21215;-78
2023/01/06 06:04:06;;;;;;;5.28;3.50;;;;;;;8.16;91.08;98996.28;1726759;81;22758;-78
2023/01/06 06:07:11;;;;;;;6.12;3.47;;;;;;;8.28;91.20;99001.55;1716165;82;21755;-78
2023/01/06 06:10:18;;;;;;;5.28;2.98;;;;;;;8.17;91.35;99004.25;1721429;82;22550;-79
2023/01/06 06:13:24;;;;;;;5.58;3.00;;;;;;;7.84;93.23;99007.94;1727616;81;21282;-78
2023/01/06 06:16:31;;;;;;;8.30;3.35;;;;;;;8.04;92.83;99012.78;1705242;82;21270;-79
2023/01/06 06:19:37;;;;;;;5.20;3.22;;;;;;;8.10;91.97;99016.12;1725987;81;21223;-78
2023/01/06 06:22:43;;;;;;;4.22;2.75;;;;;;;7.90;92.88;99019.94;1728260;82;21203;-78
2023/01/06 06:25:49;;;;;;;5.25;3.10;;;;;;;7.92;93.46;99024.17;1727842;81;21517;-78
2023/01/06 06:28:55;;;;;;;4.78;3.20;;;;;;;8.23;92.39;99035.31;1719395;82;21239;-79
2023/01/06 06:32:01;;;;;;;4.40;2.80;;;;;;;8.39;91.27;99039.73;1721682;81;21216;-78
2023/01/06 06:35:07;;;;;;;6.83;2.90;;;;;;;8.51;90.52;99044.14;1723597;82;21842;-79
2023/01/06 06:38:12;;;;;;;5.62;4.03;;;;;;;8.54;90.07;99045.12;1720604;82;21307;-79
2023/01/06 06:41:18;;;;;;;6.25;3.17;;;;;;;8.32;91.11;99045.58;1679668;83;21280;-79
2023/01/06 06:44:23;;;;;;;4.90;3.22;;;;;;;8.41;91.01;99048.54;1690589;82;21587;-79
2023/01/06 06:47:29;;;;;;;7.62;3.80;;;;;;;8.26;91.08;99048.56;1719762;82;21228;-79
2023/01/06 06:50:35;;;;;;;6.03;3.50;;;;;;;8.45;91.04;99056.66;1679083;84;21225;-79
2023/01/06 06:53:42;;;;;;;8.80;3.58;;;;;;;8.25;91.58;99056.41;1702906;82;21884;-79
2023/01/06 06:56:47;;;;;;;5.65;3.40;;;;;;;8.31;91.40;99058.36;1706116;82;21377;-78
2023/01/06 06:59:53;;;;;;;7.80;4.30;;;;;;;8.36;91.48;99061.88;1708090;81;21225;-80
2023/01/06 07:02:59;;;;;;;4.50;3.20;;;;;;;8.49;90.89;99067.50;1714777;82;21256;-80
2023/01/06 07:06:05;;;;;;;6.97;3.37;;;;;;;8.60;90.23;99068.87;1693409;82;21219;-80
2023/01/06 07:09:11;;;;;;;6.08;3.35;;;;;;;8.59;89.58;99072.64;1703658;82;21836;-79
2023/01/06 07:12:16;;;;;;;6.97;3.42;;;;;;;8.42;90.44;99074.26;1694543;82;21296;-79
2023/01/06 07:15:22;;;;;;;5.25;3.20;;;;;;;8.21;91.46;99070.09;1699702;81;21583;-78
2023/01/06 07:18:27;;;;;;;7.55;3.85;;;;;;;8.17;91.83;99080.52;1720825;82;21236;-79
2023/01/06 07:21:33;;;;;;;5.65;3.20;;;;;;;8.16;92.36;99080.72;1718219;81;21841;-79
2023/01/06 07:24:38;;;;;;;4.65;2.92;;;;;;;8.14;92.30;99083.64;1729595;81;21245;-79
2023/01/06 07:27:44;;;;;;;7.03;3.50;;;;;;;8.37;91.39;99087.58;1741799;81;22483;-78
2023/01/06 07:30:50;;;;;;;6.05;3.02;;;;;;;8.43;90.83;99090.92;1684422;83;21311;-80
2023/01/06 07:33:55;;;;;;;5.03;3.25;;;;;;;8.44;90.26;99093.13;1718395;82;21343;-79
2023/01/06 07:37:01;;;;;;;4.80;2.87;;;;;;;8.28;90.98;99095.55;1726337;81;21312;-80
2023/01/06 07:40:06;;;;;;;6.80;3.10;;;;;;;8.30;91.13;99092.62;1711134;81;21302;-80
2023/01/06 07:43:20;;;;;;;5.85;3.10;;;;;;;8.53;90.54;99097.95;1675615;82;21231;-79
2023/01/06 07:46:22;;;;;;;3.37;2.42;;;;;;;8.38;90.96;99097.99;1657311;84;21956;-79
2023/01/06 07:49:29;;;;;;;5.12;2.75;;;;;;;8.51;90.31;99098.64;1663305;85;21286;-80
2023/01/06 07:52:35;;;;;;;6.65;3.20;;;;;;;8.39;90.81;99101.04;1643705;85;21307;-80
2023/01/06 07:55:41;;;;;;;4.62;2.85;;;;;;;8.31;91.66;99105.20;1712288;82;21239;-80
2023/01/06 07:58:46;;;;;;;4.80;3.10;;;;;;;8.56;90.95;99116.63;1728856;81;21236;-80
2023/01/06 08:01:52;;;;;;;4.28;2.58;;;;;;;8.52;90.26;99112.62;1712066;80;21237;-80
2023/01/06 08:04:58;;;;;;;6.92;3.10;;;;;;;8.30;91.67;99119.34;1718119;81;21266;-78
2023/01/06 08:08:04;;;;;;;6.08;3.02;;;;;;;8.52;91.39;99119.44;1714189;82;21244;-79
2023/01/06 08:11:09;;;;;;;5.03;2.92;;;;;;;8.42;91.51;99124.67;1673407;84;21397;-79
2023/01/06 08:14:15;;;;;;;4.15;2.77;;;;;;;8.64;91.25;99130.14;1673050;83;21187;-79
2023/01/06 08:17:21;;;;;;;4.90;2.80;;;;;;;8.60;91.30;99134.28;1681420;83;21235;-80
2023/01/06 08:20:27;;;;;;;4.35;2.50;;;;;;;8.68;91.53;99133.66;1721919;82;21275;-79
2023/01/06 08:23:34;;;;;;;4.35;2.42;;;;;;;8.69;92.49;99137.22;1709992;81;21239;-80
2023/01/06 08:26:38;;;;;;;6.72;2.47;;;;;;;8.70;91.98;99141.14;1715278;80;21278;-80
2023/01/06 08:29:45;;;;;;;5.78;3.55;;;;;;;8.86;91.11;99140.56;1716587;82;21474;-79
2023/01/06 08:32:52;;;;;;;3.15;2.30;;;;;;;8.86;90.95;99151.47;1703245;81;21822;-79
2023/01/06 08:36:06;;;;;;;5.85;3.00;;;;;;;8.85;90.80;99151.99;1716411;80;21223;-80
2023/01/06 08:39:12;;;;;;;4.85;2.58;;;;;;;9.05;89.86;99153.55;1720545;80;21271;-77
2023/01/06 08:42:19;;;;;;;3.95;2.47;;;;;;;8.84;89.89;99149.44;1699122;80;21228;-79
2023/01/06 08:45:24;;;;;;;3.37;2.10;;;;;;;8.76;89.63;99154.52;1714023;81;21520;-79
2023/01/06 08:48:30;;;;;;;4.70;2.55;;;;;;;8.69;90.08;99167.20;1710985;81;21291;-78
2023/01/06 08:51:36;;;;;;;4.60;2.62;;;;;;;8.88;89.30;99163.86;1721879;81;21266;-78
2023/01/06 08:54:43;;;;;;;3.92;2.45;;;;;;;8.79;89.46;99152.74;1708074;81;21299;-79
2023/01/06 08:57:49;;;;;;;4.72;2.52;;;;;;;8.71;89.86;99148.80;1727538;81;21267;-79
2023/01/06 09:00:54;;;;;;;3.83;2.45;;;;;;;8.68;90.24;99154.10;1715765;80;21279;-79
2023/01/06 09:03:59;;;;;;;6.00;2.90;;;;;;;8.90;89.17;99157.70;1721277;80;21262;-80
2023/01/06 09:07:06;;;;;;;3.52;2.25;;;;;;;8.89;88.55;99155.16;1690929;83;21818;-80
2023/01/06 09:10:12;;;;;;;3.98;2.70;;;;;;;8.76;88.79;99164.05;1670691;83;21232;-80
2023/01/06 09:13:18;;;;;;;3.67;2.52;;;;;;;8.58;89.94;99158.17;1680448;82;21248;-80
2023/01/06 09:16:23;;;;;;;3.90;2.20;;;;;;;8.64;90.07;99162.85;1691858;82;21227;-80
2023/01/06 09:19:29;;;;;;;4.47;2.58;;;;;;;8.65;90.05;99162.66;1713163;80;21283;-79
2023/01/06 09:22:35;;;;;;;5.12;2.47;;;;;;;8.52;90.33;99158.43;1710688;81;21244;-80
2023/01/06 09:25:41;;;;;;;3.47;2.45;;;;;;;8.74;89.05;99159.30;1722305;80;21270;-80
2023/01/06 09:28:46;;;;;;;3.10;2.30;;;;;;;8.66;89.11;99166.25;1734879;80;21220;-79
2023/01/06 09:31:53;;;;;;;2.80;2.22;;;;;;;8.86;88.25;99159.12;1719154;80;21848;-79
2023/01/06 09:34:59;;;;;;;4.20;2.45;;;;;;;8.44;89.50;99158.02;1677081;82;21248;-79
2023/01/06 09:38:05;;;;;;;8.70;4.08;;;;;;;8.52;89.23;99162.52;1670610;83;21230;-79
2023/01/06 09:41:48;;;;;;;5.85;3.17;;;;;;;8.49;90.08;99164.77;1655581;84;21260;-79
2023/01/06 09:45:15;;;;;;;5.28;3.27;;;;;;;8.62;89.65;99164.42;1706122;82;21243;-80
2023/01/06 09:48:25;;;;;;;9.38;2.60;;;;;;;8.54;90.22;99183.59;1703264;81;21260;-79
2023/01/06 09:51:31;;;;;;;5.67;4.30;;;;;;;8.28;89.79;99197.70;1717651;80;21247;-79
2023/01/06 09:54:40;;;;;;;6.55;5.30;;;;;;;8.12;89.70;99189.70;1698589;82;21239;-79
2023/01/06 09:57:52;;;;;;;7.47;4.17;;;;;;;7.80;90.26;99202.63;1715675;81;21247;-79
2023/01/06 10:01:02;;;;;;;3.08;2.70;;;;;;;7.62;90.22;99211.65;1723407;81;21267;-78
2023/01/06 10:04:07;;;;;;;3.95;2.12;;;;;;;7.50;90.76;99218.06;1673286;83;21394;-78
2023/01/06 10:07:35;;;;;;;2.98;1.87;;;;;;;7.22;90.16;99219.12;1704260;81;21180;-79
2023/01/06 10:10:57;;;;;;;6.37;3.15;;;;;;;7.24;90.68;99224.37;1670862;83;21304;-78
2023/01/06 10:14:48;;;;;;;5.10;2.47;;;;;;;7.34;90.87;99237.22;1679027;82;21231;-78
2023/01/06 10:18:01;;;;;;;6.20;3.02;;;;;;;7.19;90.24;99248.04;1698228;82;21900;-79
2023/01/06 10:21:14;;;;;;;2.87;1.70;;;;;;;6.97;90.25;99258.41;1709302;80;21617;-78
2023/01/06 10:24:59;;;;;;;4.45;2.22;;;;;;;6.98;89.07;99273.68;1712242;81;21819;-79
2023/01/06 10:28:11;;;;;;;2.30;2.10;;;;;;;6.66;88.58;99277.73;1712677;81;21309;-78
2023/01/06 10:31:21;;;;;;;2.45;2.20;;;;;;;6.64;88.33;99278.94;1712304;81;21159;-79
2023/01/06 10:34:34;;;;;;;1.90;1.67;;;;;;;6.43;88.55;99285.46;1689585;81;21272;-78
2023/01/06 10:37:46;;;;;;;2.20;2.00;;;;;;;6.06;88.18;99301.83;1706758;80;21220;-79
2023/01/06 10:40:53;;;;;;;2.47;2.05;;;;;;;6.07;88.60;99307.59;1660826;83;21594;-78
2023/01/06 10:43:59;;;;;;;3.87;2.33;;;;;;;5.84;89.15;99301.50;1704081;81;21247;-78
2023/01/06 10:47:04;;;;;;;2.25;2.02;;;;;;;6.16;88.37;99307.92;1717299;80;21312;-78
2023/01/06 11:26:09;;;;;;;3.65;2.60;;;;;;;5.19;87.21;99371.94;1691485;82;21912;-78
2023/01/06 11:29:24;;;;;;;2.92;2.62;;;;;;;5.19;86.50;99386.84;1688878;83;21288;-78
2023/01/06 11:32:33;;;;;;;3.37;3.08;;;;;;;5.12;86.85;99386.63;1656116;83;21216;-78
2023/01/06 11:35:40;;;;;;;3.52;2.80;;;;;;;5.06;87.09;99398.65;1685578;83;21252;-78
2023/01/06 11:38:55;;;;;;;3.90;3.35;;;;;;;4.91;87.15;99412.48;1669344;83;21235;-78
2023/01/06 11:42:07;;;;;;;3.98;3.45;;;;;;;4.85;86.22;99421.59;1671999;83;21226;-77
2023/01/06 11:45:53;;;;;;;4.72;3.22;;;;;;;4.94;85.97;99435.17;1676176;83;21252;-78
2023/01/06 11:57:48;;;;;;;4.67;3.60;;;;;;;4.93;83.80;99462.78;1726110;81;21291;-79
2023/01/06 12:00:56;;;;;;;6.08;4.42;;;;;;;4.84;83.75;99460.52;1706465;82;21288;-78
2023/01/06 12:20:02;;;;;;;7.42;6.33;;;;;;;4.48;84.24;99526.14;1705125;83;21275;-79
2023/01/06 12:23:21;;;;;;;7.17;5.60;;;;;;;4.50;84.75;99527.33;1709086;81;21248;-78
2023/01/06 12:28:53;;;;;;;7.97;6.53;;;;;;;4.16;84.29;99544.28;1728473;81;21266;-79
2023/01/06 12:34:48;;;;;;;8.60;5.95;;;;;;;3.67;86.32;99555.05;1710529;82;21250;-78
2023/01/06 12:40:51;;;;;;;7.30;6.05;;;;;;;3.61;84.75;99572.73;1719085;82;21204;-78
2023/01/06 12:44:19;;;;;;;7.58;6.25;;;;;;;3.57;84.67;99567.27;1692105;84;21220;-78
2023/01/06 12:47:35;;;;;;;8.50;6.53;;;;;;;3.47;85.15;99568.67;1643818;84;21248;-77
2023/01/06 12:53:17;;;;;;;17.25;9.63;;;;;;;3.36;85.86;99585.59;1681805;84;21609;-80
2023/01/06 12:56:27;;;;;;;5.62;4.10;;;;;;;3.47;85.72;99592.16;1661121;85;21823;-77
2023/01/06 13:02:46;;;;;;;5.10;4.60;;;;;;;3.18;83.48;99624.19;1711481;82;21287;-78
2023/01/06 13:06:00;;;;;;;6.35;4.35;;;;;;;3.08;83.15;99632.81;1716425;82;21238;-77
2023/01/06 13:09:15;;;;;;;4.50;4.10;;;;;;;3.10;83.12;99625.91;1703792;82;21231;-77
2023/01/06 13:15:25;;;;;;;7.12;4.45;;;;;;;2.84;84.91;99655.39;1705441;83;21222;-79
2023/01/06 13:18:38;;;;;;;6.37;4.80;;;;;;;2.91;84.36;99660.56;1753707;80;21223;-78
2023/01/06 13:21:43;;;;;;;6.15;4.30;;;;;;;2.89;84.29;99669.31;1746767;80;21331;-78
2023/01/06 13:25:04;;;;;;;6.60;4.95;;;;;;;2.86;83.30;99685.80;1747443;81;21191;-78
2023/01/06 13:28:32;;;;;;;9.65;6.15;;;;;;;2.81;82.64;99684.38;1751277;80;21172;-78
2023/01/06 13:32:20;;;;;;;5.22;4.72;;;;;;;2.84;81.53;99692.70;1662736;83;21294;-78
2023/01/06 13:35:52;;;;;;;6.60;5.33;;;;;;;2.83;80.67;99696.41;1696121;83;21251;-79
2023/01/06 13:39:02;;;;;;;11.00;6.10;;;;;;;2.84;80.88;99720.22;1664258;84;21323;-78
2023/01/06 13:44:35;;;;;;;7.90;5.37;;;;;;;2.75;80.13;99733.56;1667050;85;21290;-77
2023/01/06 13:50:07;;;;;;;6.72;5.55;;;;;;;2.54;79.95;99751.23;1675876;84;21275;-78
2023/01/06 13:55:43;;;;;;;7.15;5.65;;;;;;;2.44;79.52;99756.23;1694566;83;21230;-78
2023/01/06 14:03:49;;;;;;;6.92;4.72;;;;;;;2.32;78.02;99774.89;1705681;83;21759;-77
2023/01/06 14:09:24;;;;;;;6.37;5.00;;;;;;;1.97;78.52;99805.31;1674388;85;21250;-78
2023/01/06 14:12:31;;;;;;;3.83;3.43;;;;;;;2.03;77.92;99812.89;1706675;83;21837;-77
2023/01/06 14:15:54;;;;;;;5.70;4.58;;;;;;;2.09;77.34;99831.73;1682385;83;21917;-80
2023/01/06 14:18:14;;;;;;;7.45;5.85;;;;;;;1.73;77.14;99836.61;1670415;84;21884;-78
2023/01/06 14:20:43;;;;;;;4.20;3.42;;;;;;;1.56;77.21;99830.98;1702414;83;21248;-77
2023/01/06 14:24:05;;;;;;;4.50;3.77;;;;;;;1.36;77.72;99830.80;1646413;85;21307;-78
2023/01/06 14:27:12;;;;;;;6.10;4.80;;;;;;;1.45;77.95;99837.25;1664838;84;21234;-78
2023/01/06 14:30:02;;;;;;;4.78;4.05;;;;;;;1.51;77.47;99840.80;1664657;85;21295;-78
2023/01/06 14:33:11;;;;;;;4.50;3.90;;;;;;;1.58;76.62;99856.80;1700242;84;21297;-78
2023/01/06 14:38:58;;;;;;;6.20;4.30;;;;;;;1.63;75.69;99868.05;1702802;83;21339;-78
2023/01/06 14:42:28;;;;;;;5.53;4.12;;;;;;;1.64;76.04;99878.34;1701952;83;21232;-78
2023/01/06 14:51:11;;;;;;;7.80;3.72;;;;;;;1.17;76.86;99900.67;1684363;84;21287;-78
2023/01/06 14:54:30;;;;;;;32.13;9.30;;;;;;;1.23;77.46;99922.60;1651299;86;21245;-78
2023/01/06 15:05:45;;;;;;;10.78;4.85;;;;;;;1.41;74.79;99930.13;1706050;83;21266;-77
2023/01/06 15:08:34;;;;;;;7.47;5.08;;;;;;;1.27;75.09;99918.67;1669433;85;21270;-79
2023/01/06 15:11:44;;;;;;;19.92;6.35;;;;;;;1.25;75.12;99926.50;1663916;85;21790;-79
2023/01/06 15:17:16;;;;;;;41.83;9.80;;;;;;;1.33;74.40;99948.30;1702073;84;21810;-79
2023/01/06 15:25:28;;;;;;;10.65;5.53;;;;;;;1.14;74.34;99974.54;1664477;85;21255;-78
2023/01/06 15:28:34;;;;;;;9.13;4.67;;;;;;;1.27;73.98;99991.43;1702686;83;21817;-78
2023/01/06 15:31:44;;;;;;;8.85;4.17;;;;;;;1.02;73.90;99993.02;1708361;83;21236;-79
2023/01/06 15:34:50;;;;;;;20.75;8.43;;;;;;;0.96;74.45;99994.37;1667061;85;22001;-78
2023/01/06 15:40:27;;;;;;;7.20;3.65;;;;;;;0.91;74.21;100018.62;1643839;86;21346;-78
2023/01/06 15:46:17;;;;;;;7.72;4.83;;;;;;;0.17;75.91;100045.86;1647552;86;21232;-78
2023/01/06 15:49:36;;;;;;;10.20;5.12;;;;;;;0.42;74.21;100044.83;1662044;85;21261;-78
2023/01/06 15:52:47;;;;;;;8.05;5.08;;;;;;;0.93;73.58;100043.58;1702761;83;21251;-78
2023/01/06 15:55:56;;;;;;;9.33;5.17;;;;;;;0.56;75.01;100065.79;1652318;86;21235;-78
2023/01/06 15:59:03;;;;;;;8.38;5.92;;;;;;;0.95;74.44;100076.66;1671884;85;21263;-77
2023/01/06 16:02:08;;;;;;;8.45;5.28;;;;;;;0.98;73.07;100089.86;1676029;84;21275;-78
2023/01/06 16:07:46;;;;;;;8.68;5.90;;;;;;;1.26;71.20;100100.16;1649420;85;21553;-78
2023/01/06 16:10:52;;;;;;;8.95;5.22;;;;;;;0.98;71.85;100090.72;1670057;85;21255;-78
2023/01/06 16:14:05;;;;;;;8.03;5.37;;;;;;;0.94;71.35;100109.47;1668469;85;21838;-78
2023/01/06 16:19:59;;;;;;;11.33;4.78;;;;;;;-0.26;74.08;100120.31;1697543;83;21218;-79
2023/01/06 16:23:02;;;;;;;;;;;;;;;-0.15;74.00;100126.73;1698776;83;21247;-78
2023/01/06 16:28:58;;;;;;;6.40;4.33;;;;;;;-0.19;74.29;100134.64;1711490;83;21270;-79
2023/01/06 16:37:05;;;;;;;8.43;4.28;;;;;;;-0.17;72.37;100175.25;1672473;85;21279;-78
2023/01/06 16:40:10;;;;;;;9.65;4.45;;;;;;;-0.21;71.33;100174.23;1664633;84;21807;-78
2023/01/06 16:45:50;;;;;;;7.47;4.70;;;;;;;-0.11;72.07;100164.53;1703691;83;21259;-78
2023/01/06 16:48:53;;;;;;;11.20;6.08;;;;;;;-0.57;73.18;100162.45;1697664;82;21803;-78
2023/01/06 16:56:43;;;;;;;10.30;6.67;;;;;;;-0.19;71.89;100175.83;1656198;85;21282;-78
2023/01/06 16:59:48;;;;;;;;;;;;;;;-0.23;72.00;100175.70;1699013;83;21218;-78
2023/01/06 17:02:54;;;;;;;11.40;5.90;;;;;;;-0.10;71.75;100166.23;1700893;83;20219;-78
2023/01/06 17:06:00;;;;;;;10.15;5.60;;;;;;;-0.48;71.06;100177.92;1707490;83;21224;-79
2023/01/06 17:11:36;;;;;;;9.10;6.28;;;;;;;-0.48;67.89;100171.70;1708943;83;21246;-78
2023/01/06 17:14:43;;;;;;;7.53;5.00;;;;;;;-0.71;67.62;100196.15;1697963;83;21259;-78
2023/01/06 17:17:50;;;;;;;7.03;3.90;;;;;;;-0.80;68.75;100190.94;1665204;85;21799;-78
2023/01/06 17:20:56;;;;;;;8.33;5.33;;;;;;;-0.60;66.74;100211.05;1647021;86;21679;-78
2023/01/06 17:24:25;;;;;;;10.70;7.12;;;;;;;-0.78;67.40;100214.05;1697394;84;21235;-77
2023/01/06 17:30:07;;;;;;;17.35;10.82;;;;;;;-0.89;69.67;100220.66;1700054;83;21251;-78